createdAt,value
2019-02-10T00:00:21.777Z,50.77
2019-02-10T00:02:48.816Z,49.77
2019-02-10T00:05:16.732Z,43.80
2019-02-10T00:07:43.281Z,50.57
2019-02-10T00:10:09.851Z,44.40
2019-02-10T00:12:36.500Z,50.53
2019-02-10T00:15:06.507Z,48.30
2019-02-10T00:17:33.294Z,48.60
2019-02-10T00:19:59.975Z,44.77
2019-02-10T00:22:26.587Z,46.10
2019-02-10T00:24:53.200Z,51.93
2019-02-10T00:27:19.895Z,50.73
2019-02-10T00:29:46.505Z,50.80
2019-02-10T00:32:13.145Z,47.93
2019-02-10T00:34:39.951Z,53.57
2019-02-10T00:37:06.564Z,44.73
2019-02-10T00:39:33.154Z,45.63
2019-02-10T00:42:02.938Z,46.17
2019-02-10T00:44:29.504Z,45.60
2019-02-10T00:46:56.055Z,45.20
2019-02-10T00:50:19.200Z,47.67
2019-02-10T00:52:45.819Z,45.17
2019-02-10T00:55:12.451Z,42.47
2019-02-10T00:57:39.134Z,47.70
2019-02-10T01:00:08.122Z,45.63
2019-02-10T01:02:34.751Z,46.00
2019-02-10T01:05:01.327Z,45.00
2019-02-10T01:07:27.974Z,41.77
2019-02-10T01:09:55.732Z,44.47
2019-02-10T01:12:22.423Z,40.93
2019-02-10T01:14:48.963Z,42.73
2019-02-10T01:17:15.541Z,40.37
2019-02-10T01:19:42.155Z,45.47
2019-02-10T01:22:08.703Z,45.17
2019-02-10T01:24:35.285Z,42.60
2019-02-10T01:27:01.885Z,39.80
2019-02-10T01:29:28.441Z,39.33
2019-02-10T01:31:55.142Z,43.67
2019-02-10T01:34:22.131Z,38.63
2019-02-10T01:36:49.976Z,40.40
2019-02-10T01:39:17.762Z,39.97
2019-02-10T01:41:44.337Z,41.70
2019-02-10T01:44:10.938Z,41.90
2019-02-10T01:46:37.692Z,37.30
2019-02-10T01:49:04.275Z,42.17
2019-02-10T01:51:33.689Z,40.40
2019-02-10T01:54:00.334Z,38.57
2019-02-10T01:56:26.888Z,39.10
2019-02-10T01:58:53.443Z,41.47
2019-02-10T02:01:20.008Z,42.93
2019-02-10T02:03:46.615Z,44.80
2019-02-10T02:06:13.235Z,39.33
2019-02-10T02:08:39.831Z,39.63
2019-02-10T02:11:06.701Z,44.37
2019-02-10T02:13:33.278Z,41.33
2019-02-10T02:15:59.873Z,35.70
2019-02-10T02:18:26.527Z,39.27
2019-02-10T02:20:53.119Z,40.33
2019-02-10T02:23:26.016Z,43.20
2019-02-10T02:25:52.596Z,44.37
2019-02-10T02:28:19.167Z,39.73
2019-02-10T02:30:45.775Z,37.00
2019-02-10T02:33:12.444Z,40.13
2019-02-10T02:35:39.193Z,39.07
2019-02-10T02:38:05.857Z,38.40
2019-02-10T02:40:34.336Z,41.87
2019-02-10T02:43:00.992Z,43.57
2019-02-10T02:45:27.531Z,35.50
2019-02-10T02:47:54.089Z,40.83
2019-02-10T02:50:20.779Z,43.77
2019-02-10T02:52:47.398Z,44.00
2019-02-10T02:55:15.296Z,38.93
2019-02-10T02:57:45.185Z,39.40
2019-02-10T03:00:11.755Z,35.43
2019-02-10T03:02:41.540Z,39.63
2019-02-10T03:05:09.178Z,36.90
2019-02-10T03:07:35.734Z,41.97
2019-02-10T03:10:05.339Z,35.30
2019-02-10T03:12:31.918Z,34.53
2019-02-10T03:14:58.474Z,36.67
2019-02-10T03:17:25.080Z,33.10
2019-02-10T03:19:51.651Z,37.40
2019-02-10T03:22:18.236Z,35.80
2019-02-10T03:24:44.811Z,37.10
2019-02-10T03:27:11.408Z,40.83
2019-02-10T03:29:38.091Z,33.10
2019-02-10T03:32:04.712Z,34.60
2019-02-10T03:34:31.306Z,35.50
2019-02-10T03:36:57.917Z,34.17
2019-02-10T03:39:24.532Z,35.57
2019-02-10T03:41:51.106Z,38.27
2019-02-10T03:44:17.689Z,35.07
2019-02-10T03:46:47.209Z,39.80
2019-02-10T03:49:13.819Z,29.57
2019-02-10T03:51:40.385Z,35.73
2019-02-10T03:54:06.996Z,32.57
2019-02-10T03:56:33.592Z,38.70
2019-02-10T03:59:00.291Z,31.73
2019-02-10T04:01:28.086Z,32.60
2019-02-10T04:03:57.902Z,34.07
2019-02-10T04:06:24.517Z,32.50
2019-02-10T04:08:51.056Z,31.07
2019-02-10T04:11:17.648Z,32.73
2019-02-10T04:13:44.336Z,29.87
2019-02-10T04:16:10.906Z,27.97
2019-02-10T04:18:37.540Z,31.90
2019-02-10T04:21:04.141Z,34.00
2019-02-10T04:23:30.700Z,32.87
2019-02-10T04:25:57.443Z,33.70
2019-02-10T04:28:24.026Z,30.50
2019-02-10T04:30:50.680Z,33.07
2019-02-10T04:33:17.326Z,30.23
2019-02-10T04:35:43.906Z,34.33
2019-02-10T04:38:10.548Z,30.60
2019-02-10T04:40:37.110Z,30.60
2019-02-10T04:43:03.696Z,36.53
2019-02-10T04:45:30.309Z,35.67
2019-02-10T04:47:56.876Z,32.10
2019-02-10T04:50:23.463Z,30.23
2019-02-10T04:52:50.059Z,27.13
2019-02-10T04:55:16.615Z,31.63
2019-02-10T04:57:43.219Z,35.27
2019-02-10T05:00:09.859Z,29.13
2019-02-10T05:02:36.611Z,31.20
2019-02-10T05:05:03.517Z,27.23
2019-02-10T05:07:30.128Z,28.10
2019-02-10T05:09:56.732Z,30.37
2019-02-10T05:12:23.340Z,30.87
2019-02-10T05:14:49.993Z,35.73
2019-02-10T05:17:16.549Z,34.03
2019-02-10T05:19:43.196Z,33.40
2019-02-10T05:22:09.795Z,28.37
2019-02-10T05:24:36.349Z,27.97
2019-02-10T05:27:02.942Z,30.70
2019-02-10T05:29:29.561Z,30.67
2019-02-10T05:31:56.187Z,28.53
2019-02-10T05:34:22.843Z,30.47
2019-02-10T05:36:49.437Z,30.17
2019-02-10T05:39:16.044Z,32.63
2019-02-10T05:41:42.605Z,29.87
2019-02-10T05:44:09.212Z,34.87
2019-02-10T05:46:35.857Z,32.60
2019-02-10T05:49:02.400Z,29.17
2019-02-10T05:51:29.049Z,28.60
2019-02-10T05:53:55.721Z,28.67
2019-02-10T05:56:22.288Z,26.43
2019-02-10T05:58:48.877Z,31.43
2019-02-10T06:01:21.215Z,28.97
2019-02-10T06:03:47.850Z,28.50
2019-02-10T06:06:14.500Z,27.57
2019-02-10T06:08:41.110Z,27.67
2019-02-10T06:11:07.703Z,26.47
2019-02-10T06:13:34.277Z,29.10
2019-02-10T06:16:00.957Z,24.50
2019-02-10T06:18:27.626Z,31.67
2019-02-10T06:20:54.240Z,29.43
2019-02-10T06:23:20.903Z,28.53
2019-02-10T06:25:47.454Z,29.20
2019-02-10T06:28:14.098Z,24.00
2019-02-10T06:30:40.711Z,28.23
2019-02-10T06:33:07.343Z,24.97
2019-02-10T06:35:33.912Z,28.50
2019-02-10T06:38:00.500Z,30.67
2019-02-10T06:40:27.127Z,31.47
2019-02-10T06:42:53.702Z,24.83
2019-02-10T06:45:20.270Z,25.07
2019-02-10T06:47:46.864Z,26.43
2019-02-10T06:50:13.461Z,25.77
2019-02-10T06:52:40.077Z,27.53
2019-02-10T06:55:08.382Z,24.77
2019-02-10T06:57:34.991Z,28.97
2019-02-10T07:00:03.479Z,39.40
2019-02-10T07:02:38.427Z,35.60
2019-02-10T07:05:09.428Z,44.67
2019-02-10T07:07:37.085Z,38.93
2019-02-10T07:10:06.409Z,31.83
2019-02-10T07:12:39.875Z,27.87
2019-02-10T07:15:12.375Z,29.83
2019-02-10T07:17:41.852Z,25.67
2019-02-10T07:20:14.136Z,27.23
2019-02-10T07:22:40.766Z,30.80
2019-02-10T07:25:13.140Z,25.23
2019-02-10T07:27:39.994Z,30.33
2019-02-10T07:30:07.770Z,31.40
2019-02-10T07:32:40.123Z,29.03
2019-02-10T07:35:12.475Z,39.80
2019-02-10T07:37:44.835Z,31.80
2019-02-10T07:40:15.254Z,30.17
2019-02-10T07:42:47.559Z,36.43
2019-02-10T07:45:19.974Z,34.60
2019-02-10T07:47:52.398Z,31.93
2019-02-10T07:50:26.664Z,34.73
2019-02-10T07:52:59.012Z,32.67
2019-02-10T07:55:29.425Z,35.90
2019-02-10T07:58:00.959Z,33.83
2019-02-10T08:00:32.626Z,35.37
2019-02-10T08:03:06.870Z,32.10
2019-02-10T08:05:39.317Z,32.00
2019-02-10T08:08:11.728Z,39.67
2019-02-10T08:10:42.260Z,34.00
2019-02-10T08:13:14.709Z,32.53
2019-02-10T08:15:45.131Z,30.80
2019-02-10T08:18:17.471Z,30.97
2019-02-10T08:20:47.878Z,30.23
2019-02-10T08:23:20.283Z,35.07
2019-02-10T08:25:50.657Z,33.13
2019-02-10T08:28:23.034Z,35.17
2019-02-10T08:30:53.746Z,30.87
2019-02-10T08:33:26.155Z,32.47
2019-02-10T08:35:58.517Z,30.00
2019-02-10T08:38:28.922Z,30.03
2019-02-10T08:41:00.577Z,28.23
2019-02-10T08:43:32.342Z,29.80
2019-02-10T08:46:04.754Z,32.10
2019-02-10T08:48:35.355Z,32.53
2019-02-10T08:51:09.530Z,28.43
2019-02-10T08:53:36.587Z,32.13
2019-02-10T08:56:06.256Z,30.37
2019-02-10T08:58:32.889Z,29.20
2019-02-10T09:00:59.514Z,36.47
2019-02-10T09:03:26.126Z,39.03
2019-02-10T09:05:55.978Z,29.57
2019-02-10T09:08:22.668Z,27.40
2019-02-10T09:10:50.209Z,30.03
2019-02-10T09:13:16.931Z,28.27
2019-02-10T09:15:43.520Z,28.60
2019-02-10T09:18:10.112Z,29.43
2019-02-10T09:20:36.796Z,31.03
2019-02-10T09:23:03.450Z,29.30
2019-02-10T09:26:26.327Z,26.27
2019-02-10T09:28:52.992Z,30.27
2019-02-10T09:31:19.667Z,27.37
2019-02-10T09:33:46.282Z,24.40
2019-02-10T09:36:12.872Z,24.43
2019-02-10T09:38:39.740Z,26.30
2019-02-10T09:41:06.499Z,29.23
2019-02-10T09:43:33.219Z,26.20
2019-02-10T09:45:59.864Z,28.10
2019-02-10T09:48:26.465Z,28.90
2019-02-10T09:50:53.088Z,25.27
2019-02-10T09:53:19.722Z,25.67
2019-02-10T09:55:46.375Z,21.80
2019-02-10T09:58:15.724Z,25.27
2019-02-10T10:00:42.301Z,26.00
2019-02-10T10:03:08.979Z,25.10
2019-02-10T10:05:35.554Z,27.03
2019-02-10T10:08:02.127Z,25.17
2019-02-10T10:10:28.979Z,23.70
2019-02-10T10:12:55.534Z,21.83
2019-02-10T10:15:22.164Z,22.53
2019-02-10T10:17:48.771Z,22.17
2019-02-10T10:20:17.326Z,22.77
2019-02-10T10:22:43.943Z,23.57
2019-02-10T10:25:10.558Z,23.67
2019-02-10T10:27:37.294Z,23.63
2019-02-10T10:30:09.638Z,22.23
2019-02-10T10:32:39.077Z,26.17
2019-02-10T10:35:06.638Z,22.87
2019-02-10T10:37:33.440Z,22.50
2019-02-10T10:40:00.012Z,20.80
2019-02-10T10:42:26.747Z,20.27
2019-02-10T10:44:53.306Z,28.00
2019-02-10T10:47:19.890Z,23.33
2019-02-10T10:49:46.520Z,20.60
2019-02-10T10:52:13.130Z,22.07
2019-02-10T10:54:42.842Z,19.30
2019-02-10T10:57:08.422Z,20.17
2019-02-10T10:59:35.004Z,24.27
2019-02-10T11:02:03.584Z,26.30
2019-02-10T11:04:30.263Z,21.40
2019-02-10T11:06:56.827Z,18.27
2019-02-10T11:09:23.457Z,23.07
2019-02-10T11:11:51.883Z,23.47
2019-02-10T11:14:18.663Z,24.97
2019-02-10T11:16:45.300Z,24.23
2019-02-10T11:19:11.895Z,23.03
2019-02-10T11:21:38.557Z,21.07
2019-02-10T11:24:05.187Z,18.13
2019-02-10T11:26:31.818Z,21.83
2019-02-10T11:28:58.594Z,18.90
2019-02-10T11:31:25.252Z,26.97
2019-02-10T11:33:51.883Z,22.13
2019-02-10T11:36:18.519Z,20.60
2019-02-10T11:38:45.148Z,17.73
2019-02-10T11:41:11.815Z,25.87
2019-02-10T11:43:38.605Z,16.40
2019-02-10T11:46:05.388Z,18.93
2019-02-10T11:48:31.997Z,18.23
2019-02-10T11:50:58.618Z,17.50
2019-02-10T11:53:25.189Z,19.87
2019-02-10T11:56:48.427Z,16.93
2019-02-10T11:59:15.121Z,20.23
2019-02-10T12:01:41.758Z,17.87
2019-02-10T12:04:08.438Z,17.17
2019-02-10T12:06:35.085Z,19.10
2019-02-10T12:09:01.717Z,16.90
2019-02-10T12:11:32.700Z,19.60
2019-02-10T12:13:59.356Z,15.00
2019-02-10T12:16:26.159Z,17.23
2019-02-10T12:18:52.788Z,20.67
2019-02-10T12:21:19.470Z,22.40
2019-02-10T12:23:46.218Z,19.17
2019-02-10T12:26:12.972Z,22.13
2019-02-10T12:28:39.631Z,20.30
2019-02-10T12:31:06.264Z,19.17
2019-02-10T12:33:32.825Z,21.07
2019-02-10T12:35:59.446Z,24.40
2019-02-10T12:38:29.283Z,25.43
2019-02-10T12:40:55.922Z,20.00
2019-02-10T12:43:22.476Z,24.10
2019-02-10T12:45:49.123Z,20.10
2019-02-10T12:48:15.763Z,25.30
2019-02-10T12:50:42.382Z,24.97
2019-02-10T12:53:08.997Z,26.97
2019-02-10T12:55:35.564Z,22.60
2019-02-10T12:58:02.189Z,25.87
2019-02-10T13:00:28.859Z,22.13
2019-02-10T13:02:55.473Z,22.80
2019-02-10T13:05:22.159Z,22.97
2019-02-10T13:07:48.737Z,27.33
2019-02-10T13:10:17.802Z,26.73
2019-02-10T13:12:44.032Z,28.03
2019-02-10T13:15:11.825Z,32.17
2019-02-10T13:17:38.572Z,30.87
2019-02-10T13:20:08.966Z,31.40
2019-02-10T13:22:35.560Z,29.60
2019-02-10T13:25:05.129Z,30.50
2019-02-10T13:27:31.745Z,27.20
2019-02-10T13:29:58.426Z,26.83
2019-02-10T13:32:25.035Z,29.37
2019-02-10T13:34:51.632Z,26.50
2019-02-10T13:37:18.318Z,27.13
2019-02-10T13:39:44.916Z,27.33
2019-02-10T13:42:11.495Z,28.90
2019-02-10T13:44:38.203Z,30.17
2019-02-10T13:47:04.929Z,32.27
2019-02-10T13:49:31.475Z,29.87
2019-02-10T13:51:58.046Z,27.90
2019-02-10T13:54:24.673Z,28.80
2019-02-10T13:56:52.518Z,30.87
2019-02-10T13:59:19.141Z,24.60
2019-02-10T14:01:45.729Z,27.63
2019-02-10T14:04:12.378Z,27.43
2019-02-10T14:06:39.081Z,25.20
2019-02-10T14:09:06.330Z,20.90
2019-02-10T14:11:33.145Z,22.80
2019-02-10T14:13:59.836Z,25.03
2019-02-10T14:16:26.490Z,29.17
2019-02-10T14:18:53.297Z,26.17
2019-02-10T14:21:20.081Z,30.80
2019-02-10T14:23:46.651Z,30.10
2019-02-10T14:26:13.261Z,25.20
2019-02-10T14:28:39.929Z,30.87
2019-02-10T14:31:06.599Z,27.37
2019-02-10T14:33:38.743Z,27.97
2019-02-10T14:36:02.226Z,26.50
2019-02-10T14:38:36.143Z,26.30
2019-02-10T14:40:57.393Z,31.10
2019-02-10T14:43:24.103Z,30.37
2019-02-10T14:45:50.662Z,26.27
2019-02-10T14:48:17.238Z,29.67
2019-02-10T14:50:43.871Z,28.83
2019-02-10T14:53:10.610Z,27.03
2019-02-10T14:55:37.206Z,32.40
2019-02-10T14:58:03.778Z,27.00
2019-02-10T15:00:30.389Z,29.03
2019-02-10T15:02:57.065Z,27.37
2019-02-10T15:05:23.663Z,28.20
2019-02-10T15:07:50.328Z,30.73
2019-02-10T15:10:20.874Z,26.30
2019-02-10T15:12:47.537Z,28.23
2019-02-10T15:15:14.117Z,29.00
2019-02-10T15:17:40.837Z,31.97
2019-02-10T15:20:09.677Z,34.90
2019-02-10T15:22:36.271Z,32.20
2019-02-10T15:25:07.816Z,32.07
2019-02-10T15:27:35.639Z,30.70
2019-02-10T15:30:07.116Z,30.77
2019-02-10T15:32:33.707Z,32.00
2019-02-10T15:35:00.349Z,35.80
2019-02-10T15:37:26.967Z,32.97
2019-02-10T15:39:53.554Z,35.10
2019-02-10T15:42:20.105Z,34.73
2019-02-10T15:44:46.722Z,37.40
2019-02-10T15:47:13.371Z,38.00
2019-02-10T15:49:40.178Z,40.03
2019-02-10T15:52:06.774Z,44.30
2019-02-10T15:54:33.328Z,43.80
2019-02-10T15:57:01.163Z,45.43
2019-02-10T15:59:27.776Z,47.93
2019-02-10T16:01:54.368Z,41.27
2019-02-10T16:04:22.143Z,43.13
2019-02-10T16:06:48.787Z,38.23
2019-02-10T16:09:15.350Z,40.73
2019-02-10T16:11:41.992Z,36.53
2019-02-10T16:14:09.656Z,43.80
2019-02-10T16:16:36.222Z,41.93
2019-02-10T16:19:02.769Z,36.77
2019-02-10T16:21:29.390Z,41.67
2019-02-10T16:23:55.954Z,42.23
2019-02-10T16:26:22.534Z,41.40
2019-02-10T16:28:49.180Z,40.17
2019-02-10T16:31:15.754Z,35.87
2019-02-10T16:33:42.392Z,41.17
2019-02-10T16:36:09.021Z,38.47
2019-02-10T16:38:35.606Z,40.83
2019-02-10T16:41:06.419Z,41.73
2019-02-10T16:43:30.726Z,43.23
2019-02-10T16:45:57.376Z,42.27
2019-02-10T16:48:23.983Z,44.30
2019-02-10T16:50:50.620Z,40.20
2019-02-10T16:53:17.316Z,41.07
2019-02-10T16:55:44.049Z,37.37
2019-02-10T16:58:10.637Z,43.03
2019-02-10T17:00:37.336Z,46.97
2019-02-10T17:03:04.006Z,40.10
2019-02-10T17:05:30.668Z,41.47
2019-02-10T17:07:57.358Z,46.07
2019-02-10T17:10:23.967Z,42.13
2019-02-10T17:12:50.609Z,38.33
2019-02-10T17:15:17.161Z,39.10
2019-02-10T17:17:43.794Z,47.37
2019-02-10T17:20:11.741Z,41.70
2019-02-10T17:22:39.881Z,49.43
2019-02-10T17:25:11.676Z,39.10
2019-02-10T17:27:38.304Z,39.33
2019-02-10T17:30:10.031Z,42.03
2019-02-10T17:32:36.657Z,40.37
2019-02-10T17:35:07.949Z,46.83
2019-02-10T17:37:34.652Z,40.03
2019-02-10T17:40:01.268Z,43.07
2019-02-10T17:42:27.947Z,37.63
2019-02-10T17:44:54.684Z,39.97
2019-02-10T17:47:21.389Z,41.53
2019-02-10T17:49:48.137Z,37.67
2019-02-10T17:52:14.929Z,43.70
2019-02-10T17:54:42.167Z,39.77
2019-02-10T17:57:08.936Z,35.83
2019-02-10T17:59:35.634Z,40.80
2019-02-10T18:02:02.382Z,41.97
2019-02-10T18:04:37.221Z,39.70
2019-02-10T18:06:57.605Z,46.53
2019-02-10T18:09:24.268Z,44.27
2019-02-10T18:11:50.954Z,46.43
2019-02-10T18:14:19.444Z,47.00
2019-02-10T18:16:47.974Z,48.83
2019-02-10T18:19:16.497Z,44.93
2019-02-10T18:21:45.085Z,50.80
2019-02-10T18:24:15.699Z,62.30
2019-02-10T18:26:44.379Z,49.27
2019-02-10T18:29:14.177Z,52.10
2019-02-10T18:31:42.782Z,49.03
2019-02-10T18:34:11.443Z,43.60
2019-02-10T18:36:40.195Z,48.27
2019-02-10T18:39:08.762Z,49.17
2019-02-10T18:41:39.278Z,47.80
2019-02-10T18:44:10.383Z,47.20
2019-02-10T18:46:39.169Z,43.30
2019-02-10T18:49:07.674Z,43.63
2019-02-10T18:51:38.543Z,44.73
2019-02-10T18:54:07.447Z,46.20
2019-02-10T18:56:36.213Z,44.73
2019-02-10T18:59:05.420Z,52.53
2019-02-10T19:01:33.972Z,50.80
2019-02-10T19:04:02.571Z,47.37
2019-02-10T19:06:31.190Z,46.40
2019-02-10T19:09:03.842Z,48.67
2019-02-10T19:11:30.153Z,51.17
2019-02-10T19:14:01.674Z,46.17
2019-02-10T19:16:31.300Z,48.87
2019-02-10T19:18:57.907Z,48.53
2019-02-10T19:21:26.551Z,47.03
2019-02-10T19:23:55.459Z,44.07
2019-02-10T19:26:24.401Z,50.27
2019-02-10T19:29:52.113Z,53.80
2019-02-10T19:32:20.921Z,45.63
2019-02-10T19:34:49.734Z,47.70
2019-02-10T19:37:18.559Z,47.00
2019-02-10T19:39:47.490Z,42.33
2019-02-10T19:42:16.600Z,42.83
2019-02-10T19:44:45.608Z,42.33
2019-02-10T19:47:14.448Z,43.77
2019-02-10T19:49:43.425Z,42.80
2019-02-10T19:52:12.309Z,46.13
2019-02-10T19:54:41.304Z,49.70
2019-02-10T19:57:10.341Z,48.97
2019-02-10T19:59:39.422Z,47.30
2019-02-10T20:02:08.582Z,43.97
2019-02-10T20:04:37.811Z,47.57
2019-02-10T20:08:03.495Z,52.50
2019-02-10T20:10:32.628Z,49.03
2019-02-10T20:13:01.487Z,47.90
2019-02-10T20:15:30.415Z,45.10
2019-02-10T20:18:00.479Z,46.37
2019-02-10T20:20:29.407Z,48.07
2019-02-10T20:22:56.663Z,50.03
2019-02-10T20:25:25.553Z,49.77
2019-02-10T20:27:54.383Z,50.33
2019-02-10T20:30:23.308Z,47.40
2019-02-10T20:32:54.162Z,46.90
2019-02-10T20:35:23.184Z,46.70
2019-02-10T20:37:52.005Z,49.23
2019-02-10T20:40:20.840Z,48.23
2019-02-10T20:42:49.826Z,46.43
2019-02-10T20:45:18.810Z,53.63
2019-02-10T20:47:47.746Z,56.17
2019-02-10T20:50:16.759Z,50.13
2019-02-10T20:52:46.514Z,54.30
2019-02-10T20:55:15.824Z,50.67
2019-02-10T20:57:44.624Z,51.13
2019-02-10T21:00:13.509Z,52.83
2019-02-10T21:02:42.447Z,53.40
2019-02-10T21:05:11.931Z,53.63
2019-02-10T21:07:40.883Z,47.83
2019-02-10T21:10:10.772Z,54.53
2019-02-10T21:12:40.108Z,55.60
2019-02-10T21:15:10.671Z,51.80
2019-02-10T21:17:39.667Z,47.37
2019-02-10T21:20:10.973Z,51.63
2019-02-10T21:22:39.835Z,51.07
2019-02-10T21:25:09.413Z,51.03
2019-02-10T21:27:38.362Z,57.37
2019-02-10T21:30:11.262Z,52.43
2019-02-10T21:32:40.290Z,52.00
2019-02-10T21:35:09.161Z,54.53
2019-02-10T21:37:38.094Z,49.53
2019-02-10T21:40:08.864Z,51.30
2019-02-10T21:42:37.794Z,56.73
2019-02-10T21:45:08.661Z,53.90
2019-02-10T21:47:37.603Z,51.73
2019-02-10T21:50:06.613Z,57.57
2019-02-10T21:52:33.750Z,56.07
2019-02-10T21:55:01.292Z,53.60
2019-02-10T21:57:30.080Z,53.47
2019-02-10T21:59:57.860Z,49.40
2019-02-10T22:02:26.051Z,48.73
2019-02-10T22:04:52.926Z,48.87
2019-02-10T22:07:20.282Z,48.93
2019-02-10T22:09:47.338Z,51.93
2019-02-10T22:12:14.235Z,49.27
2019-02-10T22:14:41.866Z,49.90
2019-02-10T22:17:09.103Z,47.77
2019-02-10T22:19:37.342Z,48.07
2019-02-10T22:22:04.527Z,49.90
2019-02-10T22:24:31.473Z,52.33
2019-02-10T22:26:58.949Z,41.50
2019-02-10T22:29:26.089Z,48.87
2019-02-10T22:31:52.972Z,49.93
2019-02-10T22:34:20.380Z,46.33
2019-02-10T22:36:49.732Z,55.83
2019-02-10T22:39:16.838Z,49.20
2019-02-10T22:41:43.847Z,48.80
2019-02-10T22:44:10.805Z,52.30
2019-02-10T22:46:37.785Z,52.43
2019-02-10T22:49:05.016Z,45.93
2019-02-10T22:51:32.033Z,44.77
2019-02-10T22:53:58.893Z,50.33
2019-02-10T22:56:26.259Z,49.93
2019-02-10T22:58:53.170Z,46.90
2019-02-10T23:01:20.059Z,49.70
2019-02-10T23:03:46.961Z,45.63
2019-02-10T23:06:13.919Z,52.00
2019-02-10T23:08:40.916Z,44.13
2019-02-10T23:11:07.887Z,47.70
2019-02-10T23:13:34.963Z,46.03
2019-02-10T23:16:02.034Z,50.93
2019-02-10T23:18:28.910Z,46.70
2019-02-10T23:20:55.885Z,46.53
2019-02-10T23:23:22.742Z,43.90
2019-02-10T23:25:49.944Z,49.60
2019-02-10T23:28:20.026Z,47.70
2019-02-10T23:30:46.893Z,48.17
2019-02-10T23:33:13.885Z,45.30
2019-02-10T23:35:40.893Z,46.90
2019-02-10T23:38:07.878Z,47.63
2019-02-10T23:40:35.009Z,48.90
2019-02-10T23:43:02.487Z,47.23
2019-02-10T23:45:29.823Z,51.07
2019-02-10T23:47:56.734Z,44.27
2019-02-10T23:50:23.683Z,47.50
2019-02-10T23:52:50.612Z,48.77
2019-02-10T23:55:17.645Z,51.13
2019-02-10T23:57:44.777Z,46.43
